createdAt,value
2019-05-25T00:00:53.391Z,12.85
2019-05-25T00:03:23.015Z,13.04
2019-05-25T00:05:50.415Z,12.77
2019-05-25T00:08:19.993Z,13.28
2019-05-25T00:10:47.786Z,12.49
2019-05-25T00:13:15.190Z,12.47
2019-05-25T00:15:42.533Z,12.82
2019-05-25T00:18:09.880Z,12.64
2019-05-25T00:20:38.890Z,12.51
2019-05-25T00:23:06.302Z,12.55
2019-05-25T00:25:33.741Z,12.71
2019-05-25T00:28:01.051Z,12.80
2019-05-25T00:30:28.543Z,12.34
2019-05-25T00:32:55.809Z,12.62
2019-05-25T00:35:23.182Z,12.56
2019-05-25T00:37:50.551Z,12.29
2019-05-25T00:40:17.885Z,12.40
2019-05-25T00:42:45.265Z,12.41
2019-05-25T00:45:12.600Z,12.50
2019-05-25T00:47:39.963Z,12.86
2019-05-25T00:50:07.414Z,12.34
2019-05-25T00:52:34.717Z,12.26
2019-05-25T00:55:04.131Z,12.50
2019-05-25T00:57:31.429Z,12.57
2019-05-25T00:59:58.815Z,13.02
2019-05-25T01:02:26.177Z,12.61
2019-05-25T01:04:53.546Z,12.69
2019-05-25T01:07:20.915Z,12.71
2019-05-25T01:09:48.310Z,12.43
2019-05-25T01:12:16.476Z,12.38
2019-05-25T01:14:44.462Z,12.52
2019-05-25T01:17:11.850Z,12.42
2019-05-25T01:19:39.197Z,12.41
2019-05-25T01:22:06.538Z,12.77
2019-05-25T01:24:43.843Z,12.69
2019-05-25T01:27:03.290Z,13.06
2019-05-25T01:29:30.603Z,12.48
2019-05-25T01:31:57.994Z,11.85
2019-05-25T01:34:25.306Z,11.85
2019-05-25T01:36:52.638Z,12.19
2019-05-25T01:39:20.015Z,12.74
2019-05-25T01:41:47.504Z,13.15
2019-05-25T01:44:14.834Z,12.76
2019-05-25T01:46:42.289Z,11.73
2019-05-25T01:49:09.610Z,12.33
2019-05-25T01:51:36.974Z,11.48
2019-05-25T01:54:05.797Z,12.03
2019-05-25T01:56:33.160Z,11.63
2019-05-25T01:59:00.468Z,11.41
2019-05-25T02:01:27.783Z,11.47
2019-05-25T02:03:55.140Z,11.72
2019-05-25T02:06:22.489Z,12.14
2019-05-25T02:08:49.920Z,11.66
2019-05-25T02:11:17.213Z,11.85
2019-05-25T02:13:44.533Z,11.89
2019-05-25T02:16:11.889Z,12.38
2019-05-25T02:18:39.230Z,12.30
2019-05-25T02:21:09.320Z,12.16
2019-05-25T02:23:36.719Z,11.34
2019-05-25T02:26:04.167Z,12.17
2019-05-25T02:28:31.657Z,11.83
2019-05-25T02:30:59.030Z,11.70
2019-05-25T02:33:26.402Z,11.52
2019-05-25T02:35:53.777Z,11.90
2019-05-25T02:38:21.113Z,11.45
2019-05-25T02:40:48.490Z,11.11
2019-05-25T02:43:15.910Z,11.50
2019-05-25T02:45:43.268Z,11.42
2019-05-25T02:48:10.664Z,12.22
2019-05-25T02:50:40.855Z,11.89
2019-05-25T02:53:12.091Z,12.29
2019-05-25T02:55:39.474Z,11.87
2019-05-25T02:58:06.810Z,12.08
2019-05-25T03:00:34.227Z,11.36
2019-05-25T03:03:02.353Z,11.86
2019-05-25T03:05:29.904Z,11.15
2019-05-25T03:07:57.972Z,11.92
2019-05-25T03:10:25.438Z,11.85
2019-05-25T03:12:53.091Z,11.63
2019-05-25T03:15:22.297Z,11.73
2019-05-25T03:17:49.636Z,11.65
2019-05-25T03:20:17.149Z,11.28
2019-05-25T03:22:44.490Z,11.48
2019-05-25T03:25:12.587Z,11.26
2019-05-25T03:27:39.954Z,11.78
2019-05-25T03:30:07.937Z,10.79
2019-05-25T03:32:35.558Z,11.08
2019-05-25T03:35:03.120Z,10.88
2019-05-25T03:37:30.487Z,10.49
2019-05-25T03:39:57.789Z,10.76
2019-05-25T03:42:25.119Z,10.98
2019-05-25T03:44:52.487Z,11.16
2019-05-25T03:47:22.593Z,10.49
2019-05-25T03:49:49.954Z,10.35
2019-05-25T03:52:17.270Z,10.98
2019-05-25T03:54:44.631Z,10.69
2019-05-25T03:57:12.010Z,10.72
2019-05-25T03:59:39.361Z,11.11
2019-05-25T04:02:06.670Z,11.28
2019-05-25T04:04:34.081Z,11.59
2019-05-25T04:07:01.402Z,11.42
2019-05-25T04:09:28.807Z,11.62
2019-05-25T04:11:56.214Z,11.86
2019-05-25T04:14:23.611Z,11.77
2019-05-25T04:16:50.960Z,11.79
2019-05-25T04:19:18.348Z,10.98
2019-05-25T04:21:45.817Z,11.10
2019-05-25T04:24:15.760Z,11.25
2019-05-25T04:26:45.391Z,10.83
2019-05-25T04:29:12.770Z,12.01
2019-05-25T04:31:40.122Z,12.10
2019-05-25T04:34:07.605Z,12.07
2019-05-25T04:36:34.988Z,12.09
2019-05-25T04:39:03.086Z,11.83
2019-05-25T04:41:32.832Z,10.78
2019-05-25T04:44:03.655Z,11.34
2019-05-25T04:46:31.024Z,12.01
2019-05-25T04:48:58.351Z,12.16
2019-05-25T04:51:25.731Z,12.01
2019-05-25T04:53:53.091Z,11.16
2019-05-25T04:56:20.430Z,10.96
2019-05-25T04:58:47.770Z,11.09
2019-05-25T05:01:16.277Z,11.04
2019-05-25T05:03:43.710Z,11.04
2019-05-25T05:06:11.030Z,11.23
2019-05-25T05:08:38.350Z,11.81
2019-05-25T05:11:06.798Z,11.94
2019-05-25T05:13:34.185Z,11.58
2019-05-25T05:16:01.573Z,11.32
2019-05-25T05:18:28.881Z,11.45
2019-05-25T05:20:56.286Z,11.46
2019-05-25T05:23:23.658Z,12.05
2019-05-25T05:25:50.979Z,11.89
2019-05-25T05:28:21.683Z,11.94
2019-05-25T05:30:59.853Z,12.42
2019-05-25T05:33:27.240Z,12.34
2019-05-25T05:35:54.798Z,12.48
2019-05-25T05:38:23.578Z,12.75
2019-05-25T05:40:51.718Z,12.66
2019-05-25T05:43:20.113Z,12.55
2019-05-25T05:45:48.697Z,12.72
2019-05-25T05:48:17.836Z,12.86
2019-05-25T05:50:45.971Z,13.20
2019-05-25T05:53:13.352Z,12.97
2019-05-25T05:55:40.771Z,13.11
2019-05-25T05:58:08.129Z,13.25
2019-05-25T06:00:35.512Z,13.06
2019-05-25T06:03:02.893Z,12.92
2019-05-25T06:05:30.298Z,13.16
2019-05-25T06:07:57.704Z,13.19
2019-05-25T06:10:25.710Z,13.11
2019-05-25T06:12:53.070Z,13.25
2019-05-25T06:15:20.557Z,13.14
2019-05-25T06:17:47.930Z,13.09
2019-05-25T06:20:16.216Z,13.05
2019-05-25T06:22:43.570Z,13.14
2019-05-25T06:25:10.940Z,13.46
2019-05-25T06:27:38.273Z,13.58
2019-05-25T06:30:06.693Z,13.34
2019-05-25T06:32:34.139Z,13.51
2019-05-25T06:35:01.740Z,13.84
2019-05-25T06:37:29.142Z,13.82
2019-05-25T06:39:56.480Z,13.53
2019-05-25T06:42:23.853Z,13.97
2019-05-25T06:44:51.299Z,14.17
2019-05-25T06:47:18.625Z,14.26
2019-05-25T06:49:46.055Z,14.73
2019-05-25T06:52:13.415Z,14.77
2019-05-25T06:54:40.815Z,14.74
2019-05-25T06:57:08.219Z,14.69
2019-05-25T06:59:35.593Z,14.69
2019-05-25T07:02:03.005Z,14.59
2019-05-25T07:04:30.375Z,14.69
2019-05-25T07:06:57.800Z,14.93
2019-05-25T07:09:25.195Z,15.03
2019-05-25T07:11:52.579Z,15.38
2019-05-25T07:14:20.083Z,15.73
2019-05-25T07:16:47.410Z,15.80
2019-05-25T07:19:14.791Z,15.66
2019-05-25T07:21:42.130Z,15.76
2019-05-25T07:24:09.534Z,15.81
2019-05-25T07:26:37.090Z,15.97
2019-05-25T07:29:04.421Z,15.89
2019-05-25T07:31:31.751Z,16.08
2019-05-25T07:33:59.191Z,15.91
2019-05-25T07:36:26.557Z,16.05
2019-05-25T07:38:53.930Z,16.18
2019-05-25T07:41:21.277Z,16.27
2019-05-25T07:43:48.601Z,16.56
2019-05-25T07:46:17.273Z,16.66
2019-05-25T07:48:50.201Z,16.76
2019-05-25T07:51:15.990Z,17.04
2019-05-25T07:53:43.356Z,16.94
2019-05-25T07:56:10.770Z,16.84
2019-05-25T07:58:38.099Z,16.88
2019-05-25T08:01:05.598Z,17.24
2019-05-25T08:03:32.926Z,17.15
2019-05-25T08:06:00.349Z,17.27
2019-05-25T08:08:27.665Z,17.30
2019-05-25T08:10:55.177Z,17.25
2019-05-25T08:13:22.542Z,17.39
2019-05-25T08:15:49.943Z,17.65
2019-05-25T08:18:17.253Z,17.71
2019-05-25T08:20:47.156Z,17.71
2019-05-25T08:23:13.950Z,17.90
2019-05-25T08:25:41.517Z,17.71
2019-05-25T08:28:08.881Z,17.75
2019-05-25T08:30:36.280Z,17.77
2019-05-25T08:33:03.831Z,17.84
2019-05-25T08:35:31.150Z,17.98
2019-05-25T08:37:58.473Z,17.85
2019-05-25T08:40:25.867Z,18.20
2019-05-25T08:42:53.254Z,18.18
2019-05-25T08:45:20.748Z,18.27
2019-05-25T08:47:48.190Z,18.49
2019-05-25T08:50:16.202Z,18.46
2019-05-25T08:52:43.530Z,18.50
2019-05-25T08:55:11.088Z,18.63
2019-05-25T08:57:38.563Z,18.73
2019-05-25T09:00:06.539Z,18.60
2019-05-25T09:02:33.901Z,18.75
2019-05-25T09:05:01.279Z,18.91
2019-05-25T09:07:28.621Z,19.24
2019-05-25T09:09:55.952Z,19.24
2019-05-25T09:12:23.364Z,19.45
2019-05-25T09:14:50.743Z,19.01
2019-05-25T09:17:18.047Z,18.57
2019-05-25T09:19:45.397Z,18.89
2019-05-25T09:22:12.891Z,19.01
2019-05-25T09:24:40.291Z,18.98
2019-05-25T09:27:07.641Z,19.24
2019-05-25T09:29:35.001Z,19.04
2019-05-25T09:32:02.362Z,19.39
2019-05-25T09:34:29.788Z,19.41
2019-05-25T09:36:57.110Z,19.49
2019-05-25T09:39:24.472Z,19.34
2019-05-25T09:41:51.861Z,19.54
2019-05-25T09:44:19.223Z,19.32
2019-05-25T09:46:46.642Z,19.26
2019-05-25T09:49:14.006Z,19.59
2019-05-25T09:51:41.425Z,19.77
2019-05-25T09:54:08.772Z,19.88
2019-05-25T09:56:36.056Z,19.79
2019-05-25T09:59:19.010Z,19.51
2019-05-25T10:01:32.672Z,20.02
2019-05-25T10:04:00.040Z,20.10
2019-05-25T10:06:27.334Z,19.71
2019-05-25T10:08:54.730Z,19.84
2019-05-25T10:11:22.164Z,19.95
2019-05-25T10:13:49.447Z,19.56
2019-05-25T10:16:16.810Z,20.07
2019-05-25T10:18:44.149Z,19.99
2019-05-25T10:21:14.340Z,20.12
2019-05-25T10:23:40.817Z,19.88
2019-05-25T10:26:08.202Z,19.72
2019-05-25T10:28:35.536Z,20.17
2019-05-25T10:31:02.875Z,20.52
2019-05-25T10:33:30.296Z,20.12
2019-05-25T10:35:57.735Z,20.66
2019-05-25T10:38:25.153Z,20.39
2019-05-25T10:40:52.545Z,20.63
2019-05-25T10:43:20.002Z,20.36
2019-05-25T10:45:56.596Z,20.51
2019-05-25T10:48:24.069Z,20.30
2019-05-25T10:50:51.449Z,20.42
2019-05-25T10:53:18.809Z,20.32
2019-05-25T10:55:46.389Z,20.25
2019-05-25T10:58:13.716Z,20.46
2019-05-25T11:00:41.261Z,20.35
2019-05-25T11:03:08.751Z,20.62
2019-05-25T11:05:36.108Z,20.72
2019-05-25T11:08:03.575Z,20.73
2019-05-25T11:10:30.937Z,20.46
2019-05-25T11:12:58.316Z,20.49
2019-05-25T11:15:25.653Z,20.56
2019-05-25T11:17:53.036Z,21.27
2019-05-25T11:20:20.512Z,21.07
2019-05-25T11:22:48.180Z,20.88
2019-05-25T11:25:16.601Z,21.55
2019-05-25T11:27:44.059Z,21.68
2019-05-25T11:30:11.589Z,21.24
2019-05-25T11:32:39.438Z,21.01
2019-05-25T11:35:07.120Z,21.37
2019-05-25T11:37:36.366Z,20.85
2019-05-25T11:40:04.466Z,20.29
2019-05-25T11:42:31.813Z,20.94
2019-05-25T11:44:59.229Z,21.51
2019-05-25T11:47:26.690Z,21.63
2019-05-25T11:49:53.974Z,21.61
2019-05-25T11:52:21.423Z,21.60
2019-05-25T11:54:48.784Z,21.97
2019-05-25T11:57:18.994Z,22.53
2019-05-25T11:59:46.380Z,21.88
2019-05-25T12:02:13.870Z,21.90
2019-05-25T12:04:41.286Z,21.80
2019-05-25T12:07:08.862Z,22.45
2019-05-25T12:09:36.513Z,22.18
2019-05-25T12:12:03.894Z,22.22
2019-05-25T12:14:31.304Z,22.65
2019-05-25T12:16:58.705Z,21.92
2019-05-25T12:19:26.073Z,22.48
2019-05-25T12:21:53.419Z,22.61
2019-05-25T12:24:20.749Z,22.66
2019-05-25T12:26:48.128Z,23.05
2019-05-25T12:29:15.529Z,23.18
2019-05-25T12:31:42.949Z,23.29
2019-05-25T12:34:10.373Z,23.12
2019-05-25T12:36:37.795Z,22.61
2019-05-25T12:39:06.278Z,22.64
2019-05-25T12:41:33.796Z,22.56
2019-05-25T12:44:01.166Z,22.76
2019-05-25T12:46:28.592Z,22.76
2019-05-25T12:48:55.989Z,22.67
2019-05-25T12:51:23.390Z,22.34
2019-05-25T12:53:50.822Z,22.79
2019-05-25T12:56:18.238Z,23.17
2019-05-25T12:58:45.585Z,23.68
2019-05-25T13:01:13.029Z,22.69
2019-05-25T13:03:40.471Z,22.43
2019-05-25T13:06:07.842Z,22.50
2019-05-25T13:08:35.233Z,23.09
2019-05-25T13:11:02.656Z,23.20
2019-05-25T13:13:30.163Z,23.82
2019-05-25T13:15:57.574Z,23.96
2019-05-25T13:18:24.973Z,24.08
2019-05-25T13:20:52.412Z,24.19
2019-05-25T13:23:19.821Z,24.41
2019-05-25T13:25:47.231Z,24.03
2019-05-25T13:28:14.600Z,23.98
2019-05-25T13:30:41.961Z,23.69
2019-05-25T13:33:09.321Z,23.07
2019-05-25T13:35:36.729Z,23.04
2019-05-25T13:38:04.962Z,22.85
2019-05-25T13:40:32.381Z,22.48
2019-05-25T13:42:59.761Z,22.55
2019-05-25T13:45:27.137Z,23.15
2019-05-25T13:47:54.785Z,23.47
2019-05-25T13:50:22.136Z,23.08
2019-05-25T13:52:49.509Z,22.46
2019-05-25T13:55:18.274Z,21.93
2019-05-25T13:57:45.580Z,23.65
2019-05-25T14:00:13.424Z,23.48
2019-05-25T14:02:40.813Z,23.04
2019-05-25T14:05:08.290Z,22.54
2019-05-25T14:07:35.677Z,22.68
2019-05-25T14:10:03.753Z,22.68
2019-05-25T14:12:31.591Z,22.32
2019-05-25T14:14:58.972Z,21.85
2019-05-25T14:17:26.361Z,22.35
2019-05-25T14:19:53.774Z,22.21
2019-05-25T14:22:21.176Z,21.73
2019-05-25T14:24:48.575Z,22.21
2019-05-25T14:27:15.990Z,21.58
2019-05-25T14:29:43.318Z,21.43
2019-05-25T14:32:10.645Z,21.25
2019-05-25T14:34:38.021Z,21.79
2019-05-25T14:37:05.416Z,22.10
2019-05-25T14:39:32.797Z,21.88
2019-05-25T14:42:00.127Z,21.33
2019-05-25T14:44:27.522Z,21.45
2019-05-25T14:46:54.896Z,21.03
2019-05-25T14:49:22.279Z,21.17
2019-05-25T14:51:49.646Z,21.28
2019-05-25T14:54:17.001Z,21.38
2019-05-25T14:56:44.356Z,21.41
2019-05-25T14:59:11.727Z,21.13
2019-05-25T15:01:39.101Z,21.11
2019-05-25T15:04:06.532Z,20.57
2019-05-25T15:06:33.909Z,20.92
2019-05-25T15:09:01.348Z,20.85
2019-05-25T15:11:28.799Z,21.12
2019-05-25T15:13:56.190Z,21.35
2019-05-25T15:16:23.685Z,21.20
2019-05-25T15:18:51.088Z,21.69
2019-05-25T15:21:18.930Z,21.47
2019-05-25T15:23:46.809Z,21.03
2019-05-25T15:26:14.502Z,21.11
2019-05-25T15:28:41.883Z,21.30
2019-05-25T15:31:09.250Z,21.40
2019-05-25T15:33:36.617Z,21.26
2019-05-25T15:36:03.990Z,21.38
2019-05-25T15:38:31.384Z,21.38
2019-05-25T15:40:58.767Z,20.94
2019-05-25T15:43:26.171Z,20.91
2019-05-25T15:45:53.548Z,20.83
2019-05-25T15:48:20.911Z,20.61
2019-05-25T15:50:48.230Z,20.59
2019-05-25T15:53:15.575Z,20.65
2019-05-25T15:55:42.953Z,20.56
2019-05-25T15:58:10.819Z,20.18
2019-05-25T16:00:45.048Z,20.46
2019-05-25T16:03:12.761Z,20.27
2019-05-25T16:05:40.304Z,19.97
2019-05-25T16:08:07.667Z,19.83
2019-05-25T16:10:35.118Z,20.10
2019-05-25T16:13:02.440Z,19.65
2019-05-25T16:15:29.990Z,19.78
2019-05-25T16:17:57.452Z,19.23
2019-05-25T16:20:24.900Z,19.47
2019-05-25T16:22:52.282Z,18.85
2019-05-25T16:25:19.766Z,19.01
2019-05-25T16:27:47.153Z,18.91
2019-05-25T16:30:14.857Z,19.05
2019-05-25T16:35:11.831Z,18.83
2019-05-25T16:37:39.639Z,18.81
2019-05-25T16:40:07.317Z,18.71
2019-05-25T16:42:34.705Z,18.62
2019-05-25T16:45:05.514Z,18.82
2019-05-25T16:47:31.391Z,18.42
2019-05-25T16:49:58.828Z,18.68
2019-05-25T16:52:26.234Z,18.55
2019-05-25T16:54:53.600Z,18.36
2019-05-25T16:57:23.744Z,18.38
2019-05-25T16:59:51.139Z,18.28
2019-05-25T17:02:18.529Z,18.18
2019-05-25T17:04:46.193Z,18.15
2019-05-25T17:07:15.961Z,18.34
2019-05-25T17:09:43.302Z,18.21
2019-05-25T17:12:11.624Z,17.93
2019-05-25T17:14:38.994Z,18.00
2019-05-25T17:17:06.414Z,17.83
2019-05-25T17:19:33.814Z,18.01
2019-05-25T17:22:01.280Z,18.33
2019-05-25T17:24:28.703Z,18.02
2019-05-25T17:26:56.139Z,18.17
2019-05-25T17:29:24.756Z,18.09
2019-05-25T17:31:52.648Z,17.97
2019-05-25T17:34:19.961Z,17.85
2019-05-25T17:36:47.431Z,17.65
2019-05-25T17:39:14.810Z,17.71
2019-05-25T17:41:46.144Z,17.57
2019-05-25T17:44:13.545Z,17.57
2019-05-25T17:46:41.052Z,17.55
2019-05-25T17:49:08.481Z,17.51
2019-05-25T17:51:36.270Z,17.41
2019-05-25T17:54:03.881Z,17.44
2019-05-25T17:56:31.664Z,17.40
2019-05-25T17:58:58.984Z,17.38
2019-05-25T18:01:26.371Z,17.00
2019-05-25T18:04:06.735Z,17.25
2019-05-25T18:06:23.569Z,16.93
2019-05-25T18:08:51.475Z,16.61
2019-05-25T18:11:18.980Z,16.38
2019-05-25T18:13:46.674Z,16.41
2019-05-25T18:16:14.160Z,16.87
2019-05-25T18:18:42.070Z,16.66
2019-05-25T18:21:09.528Z,16.98
2019-05-25T18:23:39.713Z,16.55
2019-05-25T18:26:07.650Z,16.04
2019-05-25T18:28:35.018Z,16.28
2019-05-25T18:31:02.461Z,16.29
2019-05-25T18:33:30.064Z,15.99
2019-05-25T18:35:57.491Z,15.27
2019-05-25T18:38:24.931Z,15.99
2019-05-25T18:40:52.405Z,16.06
2019-05-25T18:43:20.891Z,16.28
2019-05-25T18:45:49.823Z,16.25
2019-05-25T18:48:19.745Z,15.78
2019-05-25T18:50:47.374Z,14.76
2019-05-25T18:53:17.236Z,15.21
2019-05-25T18:55:45.993Z,15.23
2019-05-25T18:58:14.423Z,14.73
2019-05-25T19:00:43.492Z,14.01
2019-05-25T19:03:13.190Z,13.99
2019-05-25T19:05:41.084Z,13.79
2019-05-25T19:08:08.606Z,14.11
2019-05-25T19:10:36.126Z,14.42
2019-05-25T19:13:06.242Z,13.97
2019-05-25T19:15:38.327Z,14.41
2019-05-25T19:18:05.794Z,13.84
2019-05-25T19:20:35.463Z,13.89
2019-05-25T19:23:24.932Z,13.69
2019-05-25T19:25:56.294Z,13.68
2019-05-25T19:28:28.334Z,13.48
2019-05-25T19:31:06.893Z,13.40
2019-05-25T19:33:39.828Z,13.86
2019-05-25T19:36:15.083Z,13.27
2019-05-25T19:39:12.440Z,13.34
2019-05-25T19:41:43.638Z,13.40
2019-05-25T19:44:18.258Z,13.31
2019-05-25T19:46:48.036Z,13.31
2019-05-25T19:49:22.481Z,13.23
2019-05-25T19:52:09.302Z,13.52
2019-05-25T19:54:42.327Z,13.16
2019-05-25T19:57:21.889Z,13.27
2019-05-25T20:00:01.274Z,13.99
2019-05-25T20:02:35.045Z,13.71
2019-05-25T20:05:19.294Z,13.91
2019-05-25T20:07:54.947Z,13.70
2019-05-25T20:10:26.149Z,13.74
2019-05-25T20:12:57.913Z,13.68
2019-05-25T20:18:28.496Z,14.16
2019-05-25T20:21:02.792Z,12.98
2019-05-25T20:23:36.646Z,13.14
2019-05-25T20:26:22.604Z,13.31
2019-05-25T20:29:00.143Z,13.90
2019-05-25T20:31:27.594Z,13.39
2019-05-25T20:33:55.647Z,13.22
2019-05-25T20:36:24.124Z,13.18
2019-05-25T20:38:51.597Z,13.34
2019-05-25T20:41:20.169Z,13.14
2019-05-25T20:43:47.646Z,13.01
2019-05-25T20:46:15.078Z,12.80
2019-05-25T20:48:42.619Z,13.35
2019-05-25T20:51:10.046Z,12.96
2019-05-25T20:53:39.120Z,13.47
2019-05-25T20:56:07.101Z,13.37
2019-05-25T20:58:34.486Z,13.05
2019-05-25T21:01:01.917Z,12.93
2019-05-25T21:03:29.301Z,13.08
2019-05-25T21:05:56.695Z,12.96
2019-05-25T21:08:24.054Z,13.42
2019-05-25T21:10:52.507Z,13.41
2019-05-25T21:13:19.945Z,13.04
2019-05-25T21:15:47.389Z,13.55
2019-05-25T21:18:15.795Z,13.12
2019-05-25T21:20:43.489Z,13.24
2019-05-25T21:23:10.911Z,13.50
2019-05-25T21:25:38.281Z,13.77
2019-05-25T21:28:05.795Z,13.29
2019-05-25T21:30:33.149Z,12.93
2019-05-25T21:33:00.595Z,13.18
2019-05-25T21:35:28.035Z,13.37
2019-05-25T21:37:56.297Z,12.94
2019-05-25T21:40:23.797Z,13.46
2019-05-25T21:42:51.263Z,12.96
2019-05-25T21:45:18.793Z,12.56
2019-05-25T21:47:46.239Z,12.62
2019-05-25T21:50:15.407Z,12.64
2019-05-25T21:52:42.783Z,12.69
2019-05-25T21:55:10.431Z,13.20
2019-05-25T21:57:37.848Z,13.14
2019-05-25T22:00:05.899Z,13.02
2019-05-25T22:02:33.289Z,13.14
2019-05-25T22:05:00.670Z,13.27
2019-05-25T22:07:28.063Z,13.15
2019-05-25T22:09:55.458Z,12.89
2019-05-25T22:12:22.801Z,12.87
2019-05-25T22:14:50.182Z,12.99
2019-05-25T22:17:17.573Z,13.07
2019-05-25T22:19:45.029Z,12.85
2019-05-25T22:22:12.401Z,12.86
2019-05-25T22:24:39.730Z,12.44
2019-05-25T22:27:07.118Z,12.57
2019-05-25T22:29:34.483Z,12.66
2019-05-25T22:32:02.304Z,12.59
2019-05-25T22:34:29.629Z,12.47
2019-05-25T22:36:56.962Z,12.96
2019-05-25T22:39:24.349Z,13.41
2019-05-25T22:41:51.772Z,13.43
2019-05-25T22:44:19.111Z,13.36
2019-05-25T22:46:46.662Z,13.01
2019-05-25T22:49:14.011Z,12.97
2019-05-25T22:51:41.358Z,12.95
2019-05-25T22:54:08.716Z,12.97
2019-05-25T22:56:36.063Z,12.65
2019-05-25T22:59:03.409Z,12.87
2019-05-25T23:01:30.791Z,12.51
2019-05-25T23:03:58.490Z,12.95
2019-05-25T23:06:25.920Z,12.75
2019-05-25T23:08:53.271Z,12.57
2019-05-25T23:11:20.618Z,13.10
2019-05-25T23:13:47.977Z,13.03
2019-05-25T23:16:15.313Z,13.10
2019-05-25T23:18:42.691Z,12.99
2019-05-25T23:21:10.050Z,12.83
2019-05-25T23:23:37.409Z,13.02
2019-05-25T23:26:04.743Z,12.69
2019-05-25T23:28:32.171Z,12.96
2019-05-25T23:30:59.551Z,12.75
2019-05-25T23:33:26.877Z,13.12
2019-05-25T23:35:54.229Z,13.10
2019-05-25T23:38:21.573Z,13.03
2019-05-25T23:40:48.914Z,12.96
2019-05-25T23:43:16.269Z,12.72
2019-05-25T23:45:43.589Z,12.91
2019-05-25T23:48:10.962Z,12.68
2019-05-25T23:50:38.300Z,12.27
2019-05-25T23:53:07.655Z,12.28
2019-05-25T23:55:35.030Z,12.37
2019-05-25T23:58:02.320Z,12.76
